Time;durP1;ratioP1;P1;durP2;ratioP2;P2;SDS_P1;SDS_P2;PMS_P1;PMS_P2;Temp;Humidity;BMP_temperature;BMP_pressure;BME280_temperature;BME280_humidity;BME280_pressure;Samples;Min_cycle;Max_cycle;Signal;HPM_P1;HPM_P2
2021/09/28 00:00:06;;;;;;;;;3.75;3.75;;;;;;;;4989562;28;46839;-72
2021/09/28 00:02:31;;;;;;;;;4.75;4.75;;;;;;;;4989686;28;45526;-72
2021/09/28 00:04:57;;;;;;;;;5.25;5.25;;;;;;;;4989550;28;45425;-72
2021/09/28 00:07:22;;;;;;;;;6.00;4.00;;;;;;;;4992245;28;45411;-72
2021/09/28 00:09:47;;;;;;;;;8.75;6.75;;;;;;;;4989435;28;45391;-72
2021/09/28 00:12:12;;;;;;;;;7.75;7.75;;;;;;;;4989977;28;45493;-72
2021/09/28 00:14:38;;;;;;;;;9.00;9.00;;;;;;;;4989989;28;45580;-72
2021/09/28 00:17:03;;;;;;;;;9.25;9.00;;;;;;;;4989893;28;45390;-72
2021/09/28 00:19:28;;;;;;;;;12.75;8.00;;;;;;;;4990667;28;46225;-72
2021/09/28 00:21:53;;;;;;;;;7.00;7.00;;;;;;;;4972287;28;45469;-72
2021/09/28 00:24:19;;;;;;;;;13.75;8.75;;;;;;;;4989451;28;45512;-72
2021/09/28 00:26:44;;;;;;;;;5.75;5.75;;;;;;;;4987946;28;45513;-72
2021/09/28 00:29:09;;;;;;;;;11.00;9.00;;;;;;;;4970406;28;46363;-72
2021/09/28 00:31:34;;;;;;;;;12.50;9.00;;;;;;;;4990160;28;45299;-71
2021/09/28 00:34:00;;;;;;;;;14.75;12.25;;;;;;;;4973077;28;45330;-72
2021/09/28 00:36:25;;;;;;;;;10.50;10.50;;;;;;;;4989095;28;45502;-72
2021/09/28 00:38:50;;;;;;;;;14.00;11.75;;;;;;;;4989342;28;45441;-72
2021/09/28 00:41:16;;;;;;;;;17.00;15.25;;;;;;;;4989352;28;45434;-74
2021/09/28 00:43:45;;;;;;;;;16.00;14.75;;;;;;;;4992191;28;45387;-73
2021/09/28 00:46:10;;;;;;;;;16.75;13.25;;;;;;;;4994717;28;45442;-73
2021/09/28 00:48:35;;;;;;;;;15.50;11.75;;;;;;;;4991609;28;46285;-73
2021/09/28 00:51:00;;;;;;;;;16.00;15.50;;;;;;;;4992333;28;47103;-72
2021/09/28 00:53:26;;;;;;;;;19.50;15.50;;;;;;;;4992689;28;45480;-72
2021/09/28 00:55:51;;;;;;;;;12.25;11.25;;;;;;;;4992491;28;45488;-72
2021/09/28 00:58:17;;;;;;;;;13.00;12.00;;;;;;;;4994336;28;45290;-73
2021/09/28 01:00:42;;;;;;;;;14.00;14.00;;;;;;;;4992229;28;45333;-73
2021/09/28 01:03:08;;;;;;;;;16.00;14.75;;;;;;;;4991699;28;45470;-73
2021/09/28 01:05:34;;;;;;;;;20.50;16.25;;;;;;;;4990634;28;45399;-71
2021/09/28 01:07:59;;;;;;;;;19.75;16.25;;;;;;;;4973220;28;46903;-72
2021/09/28 01:10:24;;;;;;;;;13.25;12.75;;;;;;;;4994041;28;45392;-71
2021/09/28 01:12:49;;;;;;;;;13.00;12.00;;;;;;;;4992472;28;45453;-72
2021/09/28 01:15:16;;;;;;;;;16.50;15.00;;;;;;;;4992254;28;45813;-71
2021/09/28 01:17:42;;;;;;;;;14.75;13.25;;;;;;;;4991735;28;47125;-72
2021/09/28 01:20:07;;;;;;;;;19.00;17.75;;;;;;;;4992225;28;45478;-72
2021/09/28 01:22:32;;;;;;;;;14.50;14.50;;;;;;;;4993089;28;45393;-72
2021/09/28 01:24:58;;;;;;;;;16.75;15.00;;;;;;;;4992958;28;45442;-72
2021/09/28 01:27:23;;;;;;;;;18.25;17.25;;;;;;;;4992012;28;45493;-72
2021/09/28 01:29:48;;;;;;;;;16.75;16.50;;;;;;;;4992078;28;45390;-73
2021/09/28 01:32:13;;;;;;;;;21.25;17.00;;;;;;;;4991986;28;45633;-73
2021/09/28 01:34:38;;;;;;;;;15.00;15.00;;;;;;;;4974571;28;45453;-73
2021/09/28 01:37:04;;;;;;;;;18.50;16.00;;;;;;;;4993943;28;45554;-72
2021/09/28 01:39:29;;;;;;;;;19.25;18.75;;;;;;;;4991759;28;45441;-72
2021/09/28 01:41:54;;;;;;;;;19.50;16.50;;;;;;;;4991876;28;45541;-72
2021/09/28 01:44:20;;;;;;;;;17.33;15.33;;;;;;;;4990320;28;45391;-73
2021/09/28 01:46:47;;;;;;;;;22.00;19.25;;;;;;;;4991269;28;46395;-73
2021/09/28 01:49:13;;;;;;;;;21.00;17.75;;;;;;;;4992507;28;45369;-72
2021/09/28 01:51:38;;;;;;;;;19.00;18.25;;;;;;;;4991548;28;45284;-73
2021/09/28 01:54:04;;;;;;;;;22.25;22.25;;;;;;;;4990624;28;45257;-73
2021/09/28 01:56:30;;;;;;;;;24.75;21.25;;;;;;;;4991603;28;47459;-72
2021/09/28 01:58:59;;;;;;;;;25.50;24.00;;;;;;;;4991735;28;45541;-73
2021/09/28 02:01:25;;;;;;;;;26.75;21.25;;;;;;;;4993432;28;45532;-71
2021/09/28 02:03:50;;;;;;;;;13.25;12.50;;;;;;;;4991876;28;45565;-72
2021/09/28 02:06:17;;;;;;;;;23.50;19.75;;;;;;;;4991241;28;46169;-72
2021/09/28 02:08:42;;;;;;;;;22.75;20.00;;;;;;;;4991420;28;45451;-72
2021/09/28 02:11:07;;;;;;;;;14.50;14.50;;;;;;;;4991791;28;45451;-71
2021/09/28 02:13:32;;;;;;;;;15.00;14.50;;;;;;;;4992782;28;45273;-72
2021/09/28 02:15:57;;;;;;;;;18.00;15.00;;;;;;;;4992034;28;45933;-72
2021/09/28 02:18:23;;;;;;;;;20.00;15.75;;;;;;;;4991060;28;45588;-72
2021/09/28 02:20:48;;;;;;;;;16.75;15.50;;;;;;;;4989281;28;45512;-72
2021/09/28 02:23:13;;;;;;;;;16.00;15.75;;;;;;;;4989955;28;45442;-71
2021/09/28 02:25:38;;;;;;;;;16.25;13.75;;;;;;;;4991996;28;46483;-72
2021/09/28 02:28:04;;;;;;;;;20.50;13.25;;;;;;;;4990996;28;45443;-72
2021/09/28 02:30:29;;;;;;;;;13.25;12.50;;;;;;;;4990744;28;45441;-73
2021/09/28 02:32:54;;;;;;;;;17.50;13.50;;;;;;;;4991182;28;45323;-73
2021/09/28 02:35:19;;;;;;;;;12.00;12.00;;;;;;;;4991235;28;45441;-72
2021/09/28 02:37:45;;;;;;;;;11.00;11.00;;;;;;;;4991053;28;45304;-73
2021/09/28 02:40:11;;;;;;;;;11.00;9.25;;;;;;;;4993497;28;45252;-72
2021/09/28 02:42:36;;;;;;;;;12.00;10.50;;;;;;;;4991220;28;45328;-72
2021/09/28 02:45:03;;;;;;;;;17.25;11.50;;;;;;;;4990360;28;46031;-71
2021/09/28 02:47:29;;;;;;;;;11.50;8.00;;;;;;;;4991130;28;45450;-72
2021/09/28 02:49:54;;;;;;;;;13.25;11.75;;;;;;;;4990995;28;45484;-71
2021/09/28 02:52:19;;;;;;;;;8.00;7.50;;;;;;;;4992920;28;45418;-71
2021/09/28 02:54:45;;;;;;;;;9.25;8.75;;;;;;;;4990550;28;45755;-72
2021/09/28 02:57:10;;;;;;;;;13.50;12.50;;;;;;;;4990837;28;45431;-72
2021/09/28 02:59:36;;;;;;;;;16.50;12.75;;;;;;;;4990568;28;45463;-72
2021/09/28 03:02:02;;;;;;;;;8.00;8.00;;;;;;;;4989282;28;45316;-71
2021/09/28 03:04:27;;;;;;;;;12.75;11.50;;;;;;;;4991872;28;45458;-71
2021/09/28 03:06:53;;;;;;;;;8.00;8.00;;;;;;;;4990155;28;45386;-72
2021/09/28 03:09:18;;;;;;;;;11.25;9.50;;;;;;;;4990894;28;45545;-72
2021/09/28 03:11:43;;;;;;;;;12.25;9.50;;;;;;;;4990987;28;45531;-72
2021/09/28 03:14:08;;;;;;;;;9.75;9.75;;;;;;;;4990300;28;46900;-72
2021/09/28 03:16:34;;;;;;;;;11.25;10.75;;;;;;;;4990959;28;45638;-72
2021/09/28 03:18:59;;;;;;;;;14.00;10.75;;;;;;;;4992069;28;45291;-72
2021/09/28 03:21:24;;;;;;;;;9.25;9.25;;;;;;;;4973180;28;45601;-72
2021/09/28 03:23:49;;;;;;;;;10.25;9.25;;;;;;;;4989947;28;46560;-72
2021/09/28 03:26:15;;;;;;;;;9.00;9.00;;;;;;;;4989960;28;45268;-72
2021/09/28 03:28:40;;;;;;;;;14.00;11.50;;;;;;;;4990184;28;45640;-72
2021/09/28 03:31:05;;;;;;;;;14.25;10.75;;;;;;;;4992403;28;45318;-72
2021/09/28 03:33:30;;;;;;;;;14.50;13.50;;;;;;;;4990395;28;46007;-73
2021/09/28 03:35:55;;;;;;;;;11.50;10.50;;;;;;;;4989757;28;45495;-71
2021/09/28 03:38:20;;;;;;;;;10.50;10.50;;;;;;;;4990347;28;47232;-72
2021/09/28 03:40:46;;;;;;;;;10.50;8.50;;;;;;;;4990053;28;45641;-73
2021/09/28 03:43:11;;;;;;;;;9.25;9.00;;;;;;;;4990835;28;45984;-73
2021/09/28 03:45:37;;;;;;;;;10.50;8.00;;;;;;;;4988332;28;45302;-72
2021/09/28 03:48:02;;;;;;;;;8.00;7.00;;;;;;;;4989858;28;45514;-73
2021/09/28 03:50:27;;;;;;;;;14.50;12.25;;;;;;;;4989493;28;45531;-71
2021/09/28 03:52:53;;;;;;;;;13.00;12.25;;;;;;;;4989825;28;47001;-71
2021/09/28 03:55:21;;;;;;;;;7.50;7.50;;;;;;;;4991914;28;45376;-73
2021/09/28 03:57:47;;;;;;;;;10.75;9.50;;;;;;;;4989441;28;45426;-72
2021/09/28 04:00:13;;;;;;;;;7.50;7.50;;;;;;;;4989664;28;45296;-73
2021/09/28 04:02:38;;;;;;;;;8.00;6.75;;;;;;;;4989484;28;45563;-72
2021/09/28 04:05:03;;;;;;;;;9.00;7.50;;;;;;;;4989570;28;45351;-72
2021/09/28 04:07:28;;;;;;;;;11.00;9.25;;;;;;;;4991218;28;45328;-72
2021/09/28 04:09:54;;;;;;;;;10.75;9.00;;;;;;;;4989807;28;45500;-72
2021/09/28 04:12:19;;;;;;;;;13.25;9.25;;;;;;;;4988389;28;46451;-73
2021/09/28 04:14:46;;;;;;;;;7.75;7.00;;;;;;;;4989095;28;45426;-73
2021/09/28 04:17:11;;;;;;;;;8.75;8.75;;;;;;;;4990296;28;45405;-73
2021/09/28 04:19:36;;;;;;;;;13.00;10.25;;;;;;;;4993112;28;45340;-73
2021/09/28 04:22:02;;;;;;;;;9.00;9.00;;;;;;;;4992010;28;47129;-72
2021/09/28 04:24:28;;;;;;;;;7.50;7.50;;;;;;;;4990509;28;45411;-73
2021/09/28 04:26:54;;;;;;;;;7.25;7.25;;;;;;;;4992057;28;45481;-73
2021/09/28 04:29:19;;;;;;;;;4.00;4.00;;;;;;;;4992054;28;45387;-71
2021/09/28 04:31:44;;;;;;;;;6.25;4.25;;;;;;;;4991812;28;46202;-73
2021/09/28 04:34:09;;;;;;;;;5.75;5.75;;;;;;;;4994002;28;45405;-73
2021/09/28 04:36:35;;;;;;;;;7.50;6.50;;;;;;;;4991818;28;45314;-73
2021/09/28 04:39:00;;;;;;;;;7.50;5.75;;;;;;;;4992434;28;45268;-73
2021/09/28 04:41:25;;;;;;;;;5.75;3.75;;;;;;;;4991370;28;46872;-72
2021/09/28 04:43:50;;;;;;;;;7.00;6.00;;;;;;;;4991803;28;45251;-72
2021/09/28 04:46:16;;;;;;;;;6.75;6.75;;;;;;;;4999690;27;45351;-73
2021/09/28 04:48:42;;;;;;;;;14.75;11.00;;;;;;;;4981789;28;45367;-73
2021/09/28 04:51:07;;;;;;;;;6.50;6.50;;;;;;;;4984641;28;47368;-72
2021/09/28 04:53:32;;;;;;;;;14.25;9.25;;;;;;;;4991343;28;45503;-71
2021/09/28 04:55:58;;;;;;;;;16.50;15.00;;;;;;;;4991206;28;45483;-72
2021/09/28 04:58:23;;;;;;;;;14.50;10.50;;;;;;;;4993655;28;45368;-71
2021/09/28 05:00:49;;;;;;;;;8.75;8.00;;;;;;;;4990524;28;46093;-73
2021/09/28 05:03:14;;;;;;;;;4.50;4.50;;;;;;;;4990503;28;45269;-72
2021/09/28 05:05:39;;;;;;;;;9.00;7.25;;;;;;;;4991019;28;45345;-72
2021/09/28 05:08:05;;;;;;;;;7.00;6.25;;;;;;;;4991483;28;45276;-71
2021/09/28 05:10:30;;;;;;;;;5.50;5.00;;;;;;;;4974821;28;46276;-74
2021/09/28 05:12:55;;;;;;;;;3.00;3.00;;;;;;;;4992098;28;45261;-73
2021/09/28 05:15:20;;;;;;;;;3.00;3.00;;;;;;;;4991055;28;45679;-73
2021/09/28 05:17:45;;;;;;;;;6.75;4.50;;;;;;;;4990937;28;45498;-72
2021/09/28 05:20:11;;;;;;;;;4.75;4.00;;;;;;;;4991554;28;45419;-72
2021/09/28 05:22:36;;;;;;;;;7.75;6.50;;;;;;;;4991798;27;47308;-73
2021/09/28 05:25:01;;;;;;;;;8.00;5.75;;;;;;;;4991791;28;45473;-72
2021/09/28 05:27:26;;;;;;;;;14.25;13.25;;;;;;;;4989143;28;45529;-73
2021/09/28 05:29:52;;;;;;;;;13.50;13.25;;;;;;;;4988680;28;46212;-73
2021/09/28 05:32:17;;;;;;;;;13.25;11.75;;;;;;;;4991096;28;45382;-73
2021/09/28 05:34:42;;;;;;;;;8.25;7.25;;;;;;;;4991080;28;45250;-72
2021/09/28 05:37:07;;;;;;;;;11.50;11.50;;;;;;;;4992941;28;45415;-73
2021/09/28 05:39:33;;;;;;;;;18.50;17.00;;;;;;;;4989273;27;46341;-73
2021/09/28 05:41:58;;;;;;;;;9.00;5.25;;;;;;;;4989150;28;45454;-74
2021/09/28 05:44:24;;;;;;;;;8.50;8.50;;;;;;;;4990079;28;45298;-73
2021/09/28 05:46:49;;;;;;;;;4.50;3.50;;;;;;;;4990113;28;45346;-73
2021/09/28 05:49:14;;;;;;;;;9.00;9.00;;;;;;;;4992136;28;45896;-73
2021/09/28 05:51:48;;;;;;;;;9.25;8.00;;;;;;;;4990637;28;45480;-73
2021/09/28 05:54:18;;;;;;;;;13.25;12.75;;;;;;;;4989985;28;45493;-73
2021/09/28 05:56:43;;;;;;;;;17.75;14.25;;;;;;;;4988983;28;45434;-72
2021/09/28 05:59:08;;;;;;;;;17.50;15.25;;;;;;;;4971778;28;46151;-74
2021/09/28 06:01:34;;;;;;;;;16.50;13.50;;;;;;;;4990900;28;45484;-72
2021/09/28 06:03:59;;;;;;;;;18.50;17.25;;;;;;;;4991396;28;45241;-74
2021/09/28 06:06:27;;;;;;;;;17.00;17.00;;;;;;;;4989300;28;45240;-73
2021/09/28 06:08:52;;;;;;;;;23.50;22.25;;;;;;;;4989656;28;46080;-73
2021/09/28 06:11:17;;;;;;;;;17.75;16.50;;;;;;;;4989579;28;45410;-73
2021/09/28 06:13:42;;;;;;;;;21.25;19.00;;;;;;;;4989685;28;45607;-71
2021/09/28 06:16:08;;;;;;;;;23.50;19.00;;;;;;;;4991939;28;45466;-74
2021/09/28 06:18:33;;;;;;;;;20.75;19.50;;;;;;;;4987774;28;46304;-74
2021/09/28 06:20:58;;;;;;;;;17.75;17.25;;;;;;;;4988009;28;45487;-74
2021/09/28 06:23:23;;;;;;;;;23.00;19.25;;;;;;;;4989028;28;45524;-74
2021/09/28 06:25:48;;;;;;;;;28.00;24.25;;;;;;;;4989517;28;45571;-75
2021/09/28 06:28:14;;;;;;;;;25.75;21.50;;;;;;;;4991059;28;46500;-74
2021/09/28 06:30:39;;;;;;;;;19.25;18.25;;;;;;;;4989165;28;45308;-74
2021/09/28 06:33:04;;;;;;;;;22.50;19.75;;;;;;;;4989459;28;45451;-74
2021/09/28 06:35:29;;;;;;;;;30.50;27.50;;;;;;;;4989276;28;45347;-74
2021/09/28 06:37:55;;;;;;;;;23.50;19.75;;;;;;;;4988619;28;46399;-74
2021/09/28 06:40:20;;;;;;;;;17.00;15.00;;;;;;;;4973304;28;45402;-74
2021/09/28 06:42:45;;;;;;;;;23.25;21.25;;;;;;;;4989573;28;45332;-74
2021/09/28 06:45:10;;;;;;;;;20.50;19.75;;;;;;;;4989215;28;45432;-74
2021/09/28 06:47:36;;;;;;;;;19.25;19.25;;;;;;;;4989170;28;46378;-73
2021/09/28 06:50:01;;;;;;;;;22.50;19.50;;;;;;;;4987239;28;45423;-73
2021/09/28 06:52:26;;;;;;;;;25.75;22.25;;;;;;;;4972578;28;45366;-74
2021/09/28 06:54:51;;;;;;;;;22.75;21.25;;;;;;;;4988560;28;45451;-72
2021/09/28 06:57:17;;;;;;;;;24.25;21.00;;;;;;;;4987894;28;47042;-73
2021/09/28 06:59:42;;;;;;;;;18.75;17.50;;;;;;;;4987583;28;45439;-72
2021/09/28 07:02:07;;;;;;;;;23.75;19.75;;;;;;;;4989238;28;45361;-75
2021/09/28 07:04:32;;;;;;;;;26.25;23.75;;;;;;;;4990189;28;45291;-74
2021/09/28 07:06:59;;;;;;;;;24.75;20.25;;;;;;;;4990152;28;45433;-74
2021/09/28 07:09:24;;;;;;;;;20.25;17.00;;;;;;;;4989206;28;45400;-74
2021/09/28 07:11:49;;;;;;;;;21.25;16.75;;;;;;;;4989247;28;45366;-74
2021/09/28 07:14:15;;;;;;;;;10.75;10.75;;;;;;;;4989573;28;45496;-75
2021/09/28 07:16:41;;;;;;;;;6.50;6.50;;;;;;;;4971645;28;48190;-72
2021/09/28 07:19:06;;;;;;;;;7.00;7.00;;;;;;;;4991661;28;45533;-73
2021/09/28 07:21:31;;;;;;;;;4.50;4.50;;;;;;;;4988923;28;45416;-73
2021/09/28 07:23:56;;;;;;;;;7.75;7.00;;;;;;;;4989317;28;45388;-73
2021/09/28 07:26:22;;;;;;;;;7.25;6.25;;;;;;;;4989131;28;46571;-73
2021/09/28 07:28:47;;;;;;;;;9.50;6.75;;;;;;;;4989371;28;45424;-74
2021/09/28 07:31:13;;;;;;;;;7.50;7.50;;;;;;;;4991657;28;45370;-74
2021/09/28 07:33:38;;;;;;;;;9.25;8.75;;;;;;;;4989909;28;45414;-73
2021/09/28 07:36:05;;;;;;;;;7.75;7.75;;;;;;;;4987422;28;45446;-72
2021/09/28 07:38:30;;;;;;;;;9.50;7.50;;;;;;;;4987540;28;45353;-73
2021/09/28 07:40:55;;;;;;;;;10.50;8.25;;;;;;;;4989450;28;45438;-73
2021/09/28 07:43:20;;;;;;;;;4.75;4.00;;;;;;;;4991080;28;45480;-73
2021/09/28 07:45:46;;;;;;;;;10.00;9.00;;;;;;;;4989867;27;45605;-73
2021/09/28 07:48:11;;;;;;;;;8.75;8.25;;;;;;;;4990255;28;45371;-73
2021/09/28 07:50:36;;;;;;;;;11.00;11.00;;;;;;;;4988832;28;45470;-72
2021/09/28 07:53:05;;;;;;;;;18.25;18.00;;;;;;;;4973178;28;45456;-73
2021/09/28 07:55:31;;;;;;;;;16.25;13.50;;;;;;;;4993081;28;45544;-73
2021/09/28 07:57:56;;;;;;;;;8.75;7.75;;;;;;;;4992796;28;45412;-73
2021/09/28 08:00:21;;;;;;;;;8.75;7.00;;;;;;;;4992402;28;45515;-72
2021/09/28 08:02:46;;;;;;;;;8.75;6.75;;;;;;;;4991832;28;45421;-73
2021/09/28 08:05:12;;;;;;;;;7.50;5.00;;;;;;;;4991478;28;46169;-74
2021/09/28 08:07:39;;;;;;;;;7.50;7.25;;;;;;;;4992509;28;45643;-72
2021/09/28 08:10:05;;;;;;;;;7.75;7.00;;;;;;;;4992054;28;45505;-73
2021/09/28 08:12:30;;;;;;;;;8.00;8.00;;;;;;;;4991842;28;45464;-73
2021/09/28 08:14:55;;;;;;;;;8.75;7.25;;;;;;;;4990041;28;45986;-73
2021/09/28 08:17:22;;;;;;;;;6.50;4.75;;;;;;;;4990154;28;45346;-72
2021/09/28 08:19:49;;;;;;;;;7.00;5.50;;;;;;;;4991472;28;45487;-73
2021/09/28 08:22:15;;;;;;;;;6.50;5.00;;;;;;;;4993999;28;45430;-74
2021/09/28 08:24:42;;;;;;;;;10.50;7.75;;;;;;;;4992086;28;45811;-73
2021/09/28 08:29:55;;;;;;;;;8.25;7.75;;;;;;;;4991581;28;45462;-73
2021/09/28 08:32:21;;;;;;;;;46.25;38.25;;;;;;;;4990811;28;45475;-74
2021/09/28 08:34:46;;;;;;;;;16.50;13.50;;;;;;;;4990792;28;46026;-73
2021/09/28 08:37:12;;;;;;;;;18.50;14.25;;;;;;;;4993347;28;45301;-73
2021/09/28 08:39:37;;;;;;;;;15.25;12.50;;;;;;;;4991254;28;45823;-73
2021/09/28 08:42:02;;;;;;;;;14.25;10.25;;;;;;;;4991442;28;45394;-74
2021/09/28 08:44:27;;;;;;;;;13.50;10.75;;;;;;;;4991191;28;45418;-73
2021/09/28 08:46:53;;;;;;;;;10.75;9.00;;;;;;;;4991448;28;45577;-73
2021/09/28 08:49:19;;;;;;;;;8.50;5.50;;;;;;;;4993195;28;45397;-73
2021/09/28 08:51:45;;;;;;;;;4.00;4.00;;;;;;;;4991042;28;45280;-73
2021/09/28 08:54:10;;;;;;;;;6.00;4.25;;;;;;;;4989293;28;45298;-73
2021/09/28 08:56:36;;;;;;;;;8.75;5.50;;;;;;;;4989686;28;45601;-73
2021/09/28 08:59:02;;;;;;;;;8.50;7.00;;;;;;;;4991614;28;45385;-73
2021/09/28 09:01:31;;;;;;;;;6.00;6.00;;;;;;;;4992804;28;45468;-72
2021/09/28 09:04:12;;;;;;;;;4.75;4.75;;;;;;;;4991516;28;47454;-71
2021/09/28 09:06:38;;;;;;;;;16.25;11.25;;;;;;;;4990484;28;45417;-72
2021/09/28 09:09:03;;;;;;;;;6.50;6.50;;;;;;;;4990689;28;45304;-72
2021/09/28 09:11:33;;;;;;;;;8.00;6.25;;;;;;;;4973559;28;45410;-73
2021/09/28 09:14:10;;;;;;;;;9.50;8.00;;;;;;;;4990939;28;46277;-71
2021/09/28 09:16:35;;;;;;;;;10.00;5.75;;;;;;;;4990776;28;45320;-73
2021/09/28 09:19:11;;;;;;;;;5.50;5.50;;;;;;;;4992119;28;45392;-71
2021/09/28 09:21:47;;;;;;;;;8.75;7.75;;;;;;;;4990615;28;45519;-72
2021/09/28 09:24:33;;;;;;;;;11.00;9.75;;;;;;;;4990583;28;46936;-72
2021/09/28 09:26:58;;;;;;;;;5.50;5.50;;;;;;;;4990420;28;45393;-71
2021/09/28 09:29:23;;;;;;;;;10.00;7.75;;;;;;;;4990349;28;45367;-72
2021/09/28 09:31:53;;;;;;;;;8.00;4.75;;;;;;;;4989319;28;45344;-72
2021/09/28 09:34:22;;;;;;;;;6.75;4.00;;;;;;;;4992455;28;46645;-72
2021/09/28 09:36:57;;;;;;;;;6.00;4.50;;;;;;;;4989154;28;45374;-71
2021/09/28 09:39:23;;;;;;;;;7.75;7.00;;;;;;;;4990581;28;45528;-73
2021/09/28 09:42:02;;;;;;;;;6.75;6.75;;;;;;;;4990426;28;45526;-71
2021/09/28 09:44:28;;;;;;;;;3.50;2.00;;;;;;;;4990525;28;46294;-72
2021/09/28 09:46:53;;;;;;;;;10.50;6.00;;;;;;;;4974480;28;45466;-72
2021/09/28 09:49:22;;;;;;;;;3.25;3.00;;;;;;;;4992473;28;45251;-72
2021/09/28 09:51:49;;;;;;;;;3.25;3.25;;;;;;;;4990657;28;45348;-72
2021/09/28 09:54:15;;;;;;;;;3.00;2.00;;;;;;;;4990319;28;45329;-72
2021/09/28 09:56:42;;;;;;;;;7.50;4.75;;;;;;;;4990529;28;45591;-71
2021/09/28 09:59:07;;;;;;;;;3.25;3.25;;;;;;;;4990661;28;45220;-72
2021/09/28 10:01:35;;;;;;;;;3.00;2.75;;;;;;;;4991296;28;45502;-74
2021/09/28 10:04:01;;;;;;;;;3.00;3.00;;;;;;;;4991703;28;46392;-73
2021/09/28 10:06:26;;;;;;;;;2.50;2.50;;;;;;;;4989848;28;45477;-72
2021/09/28 10:08:52;;;;;;;;;4.50;1.75;;;;;;;;4972461;28;45472;-71
2021/09/28 10:11:17;;;;;;;;;3.50;3.25;;;;;;;;4988772;28;45385;-73
2021/09/28 10:13:53;;;;;;;;;3.25;3.25;;;;;;;;4990222;28;46379;-71
2021/09/28 10:16:37;;;;;;;;;4.00;3.00;;;;;;;;4990822;28;45425;-72
2021/09/28 10:19:04;;;;;;;;;2.00;1.00;;;;;;;;4992174;28;45338;-72
2021/09/28 10:21:36;;;;;;;;;2.00;2.00;;;;;;;;4990124;28;45556;-72
2021/09/28 10:24:20;;;;;;;;;2.00;2.00;;;;;;;;4990113;28;46379;-72
2021/09/28 10:26:46;;;;;;;;;1.25;1.25;;;;;;;;4989831;28;45518;-71
2021/09/28 10:29:30;;;;;;;;;3.75;3.75;;;;;;;;4989641;28;45534;-72
2021/09/28 10:31:55;;;;;;;;;4.50;4.50;;;;;;;;4974802;28;45237;-73
2021/09/28 10:34:20;;;;;;;;;3.25;3.25;;;;;;;;4991249;28;46264;-72
2021/09/28 10:36:49;;;;;;;;;3.00;3.00;;;;;;;;4989623;28;45806;-72
2021/09/28 10:39:34;;;;;;;;;2.25;1.00;;;;;;;;4990027;28;45408;-73
2021/09/28 10:42:01;;;;;;;;;3.00;1.25;;;;;;;;4989898;28;45453;-72
2021/09/28 10:44:29;;;;;;;;;1.00;1.00;;;;;;;;4988963;28;47164;-73
2021/09/28 10:46:55;;;;;;;;;2.33;2.00;;;;;;;;4974299;28;45254;-71
2021/09/28 10:49:25;;;;;;;;;1.33;0.33;;;;;;;;4991473;28;45172;-72
2021/09/28 10:51:50;;;;;;;;;2.00;0.33;;;;;;;;4988042;28;45490;-71
2021/09/28 10:54:16;;;;;;;;;0.67;0.67;;;;;;;;4988000;28;46137;-73
2021/09/28 10:56:51;;;;;;;;;3.00;2.00;;;;;;;;4987430;28;45419;-72
2021/09/28 10:59:16;;;;;;;;;3.67;1.00;;;;;;;;4989277;27;45355;-75
2021/09/28 11:02:01;;;;;;;;;2.00;1.00;;;;;;;;4989613;28;45274;-72
2021/09/28 11:04:26;;;;;;;;;0.50;0.50;;;;;;;;4987166;28;46454;-73
2021/09/28 11:06:53;;;;;;;;;1.75;1.00;;;;;;;;4989616;28;45161;-73
2021/09/28 11:09:20;;;;;;;;;0.50;0.00;;;;;;;;4989629;28;45507;-73
2021/09/28 11:11:53;;;;;;;;;0.00;0.00;;;;;;;;4989069;28;45522;-73
2021/09/28 11:14:18;;;;;;;;;3.00;1.00;;;;;;;;4989396;28;47140;-72
2021/09/28 11:16:52;;;;;;;;;1.75;1.75;;;;;;;;4989065;28;45559;-72
2021/09/28 11:19:17;;;;;;;;;2.50;2.00;;;;;;;;4991476;28;45322;-73
2021/09/28 11:21:44;;;;;;;;;3.00;2.00;;;;;;;;4988923;28;45541;-71
2021/09/28 11:24:11;;;;;;;;;0.50;0.50;;;;;;;;4989219;28;45367;-72
2021/09/28 11:26:38;;;;;;;;;1.00;1.00;;;;;;;;4988222;28;45323;-73
2021/09/28 11:29:05;;;;;;;;;2.50;0.00;;;;;;;;4987399;28;45375;-73
2021/09/28 11:31:31;;;;;;;;;3.50;2.50;;;;;;;;4990086;28;45511;-73
2021/09/28 11:34:00;;;;;;;;;1.00;1.00;;;;;;;;4989180;28;45323;-72
2021/09/28 11:36:29;;;;;;;;;0.67;0.67;;;;;;;;4988917;28;45500;-72
2021/09/28 11:38:54;;;;;;;;;1.50;1.50;;;;;;;;4989141;28;47541;-72
2021/09/28 11:41:21;;;;;;;;;1.00;1.00;;;;;;;;4989129;28;45431;-73
2021/09/28 11:43:50;;;;;;;;;1.00;1.00;;;;;;;;4988640;28;45422;-72
2021/09/28 11:46:16;;;;;;;;;2.00;2.00;;;;;;;;4990392;28;45307;-74
2021/09/28 11:49:05;;;;;;;;;1.67;1.00;;;;;;;;4986481;28;45529;-72
2021/09/28 11:51:31;;;;;;;;;1.00;0.25;;;;;;;;4988226;28;45483;-73
2021/09/28 11:54:01;;;;;;;;;0.00;0.00;;;;;;;;4988788;28;45711;-74
2021/09/28 11:56:27;;;;;;;;;1.00;0.00;;;;;;;;4988700;28;45523;-73
2021/09/28 11:58:53;;;;;;;;;2.00;0.00;;;;;;;;4989117;28;45419;-72
2021/09/28 12:01:19;;;;;;;;;3.00;1.00;;;;;;;;4991262;28;45456;-72
2021/09/28 12:04:07;;;;;;;;;0.67;0.67;;;;;;;;4988673;28;46977;-73
2021/09/28 12:06:47;;;;;;;;;0.00;0.00;;;;;;;;4988551;28;45353;-72
2021/09/28 12:09:12;;;;;;;;;1.67;1.00;;;;;;;;4987243;28;45504;-73
2021/09/28 12:11:56;;;;;;;;;1.00;1.00;;;;;;;;4986689;28;45342;-73
2021/09/28 12:14:50;;;;;;;;;1.67;0.67;;;;;;;;4988343;28;46303;-73
2021/09/28 12:17:17;;;;;;;;;0.00;0.00;;;;;;;;4959126;28;47303;-73
2021/09/28 12:19:46;;;;;;;;;1.00;0.00;;;;;;;;4988441;28;47858;-72
2021/09/28 12:22:12;;;;;;;;;0.67;0.67;;;;;;;;4990788;28;45441;-74
2021/09/28 12:24:42;;;;;;;;;0.67;0.67;;;;;;;;4988155;28;45998;-73
2021/09/28 12:27:07;;;;;;;;;2.00;2.00;;;;;;;;4986537;28;45372;-73
2021/09/28 12:29:40;;;;;;;;;1.00;1.00;;;;;;;;4988296;28;45498;-74
2021/09/28 12:32:06;;;;;;;;;5.67;0.67;;;;;;;;4988187;28;45658;-72
2021/09/28 12:34:46;;;;;;;;;2.67;0.00;;;;;;;;4989009;28;45581;-72
2021/09/28 12:37:11;;;;;;;;;2.67;0.33;;;;;;;;4990060;28;45560;-72
2021/09/28 12:39:36;;;;;;;;;5.00;2.00;;;;;;;;4990862;28;45347;-73
2021/09/28 12:42:03;;;;;;;;;1.67;1.67;;;;;;;;4991607;28;45273;-71
2021/09/28 12:44:29;;;;;;;;;1.00;1.00;;;;;;;;4991173;28;46784;-72
2021/09/28 12:46:54;;;;;;;;;1.33;0.67;;;;;;;;4990138;28;45284;-73
2021/09/28 12:49:26;;;;;;;;;1.00;0.00;;;;;;;;4993278;28;45776;-72
2021/09/28 12:51:51;;;;;;;;;0.67;0.00;;;;;;;;4991700;28;45399;-72
2021/09/28 12:54:19;;;;;;;;;3.00;1.67;;;;;;;;4990488;28;45953;-72
2021/09/28 12:56:44;;;;;;;;;2.00;1.00;;;;;;;;4990233;28;45423;-72
2021/09/28 12:59:09;;;;;;;;;5.00;3.67;;;;;;;;4991182;28;45382;-72
2021/09/28 13:01:41;;;;;;;;;0.33;0.00;;;;;;;;4992099;28;45463;-72
2021/09/28 13:04:08;;;;;;;;;0.00;0.00;;;;;;;;4991159;28;47231;-73
2021/09/28 13:06:37;;;;;;;;;1.00;1.00;;;;;;;;4990709;28;45373;-72
2021/09/28 13:09:03;;;;;;;;;0.00;0.00;;;;;;;;4990553;28;45339;-73
2021/09/28 13:11:28;;;;;;;;;2.67;1.67;;;;;;;;4991090;28;45517;-72
2021/09/28 13:13:53;;;;;;;;;0.00;0.00;;;;;;;;4990832;28;46208;-72
2021/09/28 13:16:20;;;;;;;;;1.00;1.00;;;;;;;;4992899;28;45478;-72
2021/09/28 13:18:45;;;;;;;;;1.00;1.00;;;;;;;;4990669;28;45349;-72
2021/09/28 13:21:10;;;;;;;;;1.00;1.00;;;;;;;;4990408;28;45498;-72
2021/09/28 13:23:36;;;;;;;;;4.00;3.00;;;;;;;;4990165;28;47061;-72
2021/09/28 13:26:01;;;;;;;;;1.00;1.00;;;;;;;;4989520;28;45248;-72
2021/09/28 13:28:26;;;;;;;;;0.00;0.00;;;;;;;;4992715;28;45712;-72
2021/09/28 13:30:51;;;;;;;;;0.67;0.67;;;;;;;;4989300;28;45477;-72
2021/09/28 13:33:17;;;;;;;;;0.67;0.33;;;;;;;;4990399;28;46174;-72
2021/09/28 13:35:42;;;;;;;;;0.67;0.67;;;;;;;;4990675;28;47598;-71
2021/09/28 13:38:07;;;;;;;;;0.00;0.00;;;;;;;;4990567;28;45377;-72
2021/09/28 13:40:33;;;;;;;;;0.67;0.67;;;;;;;;4991907;28;45736;-73
2021/09/28 13:42:58;;;;;;;;;2.00;0.67;;;;;;;;4991862;28;46335;-72
2021/09/28 13:45:23;;;;;;;;;0.00;0.00;;;;;;;;4989946;28;45512;-72
2021/09/28 13:47:49;;;;;;;;;1.33;1.00;;;;;;;;4990102;28;45458;-72
2021/09/28 13:50:14;;;;;;;;;3.00;1.00;;;;;;;;4988557;28;45487;-74
2021/09/28 13:52:42;;;;;;;;;0.00;0.00;;;;;;;;4989870;28;47109;-72
2021/09/28 13:55:08;;;;;;;;;1.00;0.67;;;;;;;;4990536;28;45553;-73
2021/09/28 13:57:34;;;;;;;;;2.33;0.33;;;;;;;;4989826;28;45459;-72
2021/09/28 13:59:59;;;;;;;;;0.00;0.00;;;;;;;;4989672;28;45366;-71
2021/09/28 14:02:24;;;;;;;;;0.00;0.00;;;;;;;;4971864;28;46319;-73
2021/09/28 14:04:49;;;;;;;;;3.67;1.00;;;;;;;;4989220;28;45371;-71
2021/09/28 14:07:14;;;;;;;;;2.00;1.00;;;;;;;;4991301;28;45418;-72
2021/09/28 14:09:40;;;;;;;;;0.00;0.00;;;;;;;;4988020;28;45487;-72
2021/09/28 14:12:05;;;;;;;;;0.33;0.33;;;;;;;;4971836;28;48429;-73
2021/09/28 14:14:31;;;;;;;;;0.67;0.67;;;;;;;;4989197;28;45771;-72
2021/09/28 14:16:56;;;;;;;;;1.33;0.00;;;;;;;;4989800;28;45376;-72
2021/09/28 14:19:21;;;;;;;;;0.67;0.00;;;;;;;;4987599;28;45292;-72
2021/09/28 14:21:47;;;;;;;;;1.00;0.00;;;;;;;;4989660;28;45428;-72
2021/09/28 14:24:12;;;;;;;;;0.00;0.00;;;;;;;;4989743;28;45391;-72
2021/09/28 14:26:38;;;;;;;;;0.67;0.67;;;;;;;;4989474;28;45497;-72
2021/09/28 14:29:03;;;;;;;;;0.00;0.00;;;;;;;;4990113;27;45522;-73
2021/09/28 14:31:28;;;;;;;;;1.67;1.00;;;;;;;;4991088;28;47265;-72